Aviation Digital Data Service (ADDS)

Output produced by TAFs form (0041 UTC 26 July 2017)
found at http://aviationweather.gov/adds/tafs/
 
KPTW 252354Z AUTO 01006KT 10SM FEW050 OVC080 21/17 A3018 RMK AO2 SLP215 T02110167 10244 20211 53014
KRDG 252354Z AUTO 34004KT 10SM OVC080 22/17 A3016 RMK AO2 SLP215 T02220172 10244 20217 53014
KRDG 252347Z 2600/2624 VRB03KT P6SM BKN050 
     FM260600 00000KT P6SM BKN020 
     FM260900 00000KT 5SM BR BKN015 
     FM261300 VRB03KT P6SM BKN020 
     FM261800 16004KT P6SM SCT035
       
KLNS 252353Z 36004KT 10SM OVC070 23/16 A3016 RMK AO2 SLP212 T02280161 10267 20228 53012
KLNS 252335Z 2600/2624 35004KT P6SM OVC070 
     FM260500 VRB03KT 4SM BR BKN015 OVC030 
     FM260900 VRB03KT 1SM BR OVC010 
     FM261300 16004KT P6SM BKN025 
     FM261500 16006KT P6SM BKN050
       
KABE 252351Z 07006KT 10SM FEW024 BKN055 OVC085 22/17 A3016 RMK AO2 SLP212 60000 T02170167 10244 20217 53013
KABE 252347Z 2600/2624 04004KT P6SM BKN050 
     FM260300 VRB03KT P6SM BKN030 
     FM260900 00000KT P6SM BKN015 
     FM261400 VRB03KT P6SM BKN035 
     FM261700 VRB03KT P6SM SCT045
       
KPNE 252354Z 05008KT 10SM FEW035 SCT060 OVC085 22/19 A3017 RMK AO2 SLP216 60000 T02220189 10267 20222 53016
KPNE 252347Z 2600/2624 07005KT P6SM OVC050 
     FM260400 VRB03KT P6SM BKN025 
     FM261400 08005KT P6SM BKN035 
     FM261700 11005KT P6SM SCT035